Terminal Aerodrome Forecast
Issued by NWS Jacksonville, FL

Home | Current Version | Previous Version | Text Only | Print | Product List | Glossary On
Versions: 1 2 3 4 5 6 7 8 9 10 11 12 13 14 15 16 17 18 19 20 21 22 23 24 25 26 27 28 29 30
000
FTUS42 KJAX 300342 AAD
TAFGNV
TAF AMD
KGNV 300342Z 3004/3024 VRB03KT 4SM BR SCT250
      TEMPO 3003/3007 1SM BR
     FM301300 27008KT P6SM VCSH SCT025 BKN150 BKN250
     FM301600 24011KT P6SM VCTS SCT045CB BKN150 BKN250 PROB30
      3016/3020 VRB15G25KT 3SM TSRA BR SCT025 BKN040CB BKN150=

USA.gov is the U.S. government's official web portal to all federal, state and local government web resources and services.